Time;durP1;ratioP1;P1;durP2;ratioP2;P2;SDS_P1;SDS_P2;PMS_P1;PMS_P2;Temp;Humidity;BMP_temperature;BMP_pressure;BME280_temperature;BME280_humidity;BME280_pressure;Samples;Min_cycle;Max_cycle;Signal;HPM_P1;HPM_P2
2023/07/25 00:00:37;;;;;;;9.10;7.90;;;;;;;21.76;58.59;98943.23;78903;284;3028414;-74
2023/07/25 00:03:34;;;;;;;10.40;7.50;;;;;;;21.74;58.73;98953.02;78871;280;3027411;-73
2023/07/25 00:06:10;;;;;;;10.10;7.90;;;;;;;21.73;58.76;98952.41;78898;280;3026910;-74
2023/07/25 00:08:45;;;;;;;9.50;7.50;;;;;;;21.70;59.07;98948.86;78900;280;3027004;-74
2023/07/25 00:11:22;;;;;;;8.90;7.50;;;;;;;21.69;59.11;98943.42;79555;280;3011503;-74
2023/07/25 00:13:57;;;;;;;9.50;7.20;;;;;;;21.68;59.29;98946.92;78842;280;3027257;-72
2023/07/25 00:16:33;;;;;;;9.90;8.20;;;;;;;21.65;59.41;98948.14;79576;280;3012822;-73
2023/07/25 00:19:10;;;;;;;10.20;8.00;;;;;;;21.61;59.51;98947.23;79477;280;3011553;-74
2023/07/25 00:21:45;;;;;;;10.10;7.90;;;;;;;21.58;59.64;98950.26;78821;280;3027570;-73
2023/07/25 00:24:21;;;;;;;10.70;7.60;;;;;;;21.56;59.67;98948.45;79588;280;3013427;-74
2023/07/25 00:26:57;;;;;;;9.50;7.70;;;;;;;21.55;59.80;98949.75;79569;280;3011390;-74
2023/07/25 00:29:34;;;;;;;9.30;7.50;;;;;;;21.53;59.93;98950.14;79558;280;3011556;-74
2023/07/25 00:32:11;;;;;;;8.80;7.70;;;;;;;21.51;60.18;98947.50;79570;280;3011584;-74
2023/07/25 00:34:46;;;;;;;9.90;7.70;;;;;;;21.50;60.32;98949.38;78861;280;3027151;-74
2023/07/25 00:37:23;;;;;;;10.40;7.90;;;;;;;21.52;60.49;98946.67;79538;280;3012687;-74
2023/07/25 00:39:59;;;;;;;9.90;7.90;;;;;;;21.53;60.64;98941.63;78868;280;3028280;-74
2023/07/25 00:42:34;;;;;;;9.80;8.00;;;;;;;21.52;60.80;98937.20;78855;280;3027783;-74
2023/07/25 00:45:13;;;;;;;9.60;8.20;;;;;;;21.51;61.06;98948.05;79584;280;3011463;-74
2023/07/25 00:47:48;;;;;;;9.10;7.90;;;;;;;21.48;61.12;98943.58;78844;280;3027056;-72
2023/07/25 00:50:24;;;;;;;10.10;8.30;;;;;;;21.44;61.18;98952.82;78834;280;3026754;-74
2023/07/25 00:53:00;;;;;;;8.50;7.60;;;;;;;21.41;61.24;98940.93;78833;268;3026706;-72
2023/07/25 00:55:35;;;;;;;10.90;8.40;;;;;;;21.38;61.51;98947.94;78916;280;3026736;-73
2023/07/25 00:58:14;;;;;;;11.40;8.00;;;;;;;21.36;61.57;98949.58;79601;280;3011636;-74
2023/07/25 01:00:50;;;;;;;11.70;8.20;;;;;;;21.33;61.66;98949.17;78866;280;3028776;-74
2023/07/25 01:03:27;;;;;;;12.10;8.60;;;;;;;21.32;62.32;98948.29;78830;280;3026705;-73
2023/07/25 01:06:03;;;;;;;10.30;8.90;;;;;;;21.29;62.60;98947.83;78823;280;3027435;-72
2023/07/25 01:08:49;;;;;;;9.80;8.20;;;;;;;21.30;62.96;98951.80;78868;280;3028526;-73
2023/07/25 01:11:25;;;;;;;11.30;9.30;;;;;;;21.32;63.16;98951.75;78728;280;3027504;-74
2023/07/25 01:14:01;;;;;;;11.40;8.40;;;;;;;21.36;63.13;98949.89;78816;280;3027400;-72
2023/07/25 01:16:36;;;;;;;11.20;9.00;;;;;;;21.40;63.01;98949.02;78787;280;3028662;-74
2023/07/25 01:19:11;;;;;;;12.50;8.80;;;;;;;21.43;63.13;98947.49;78804;280;3026985;-74
2023/07/25 01:21:47;;;;;;;11.30;8.50;;;;;;;21.41;63.40;98943.46;78823;280;3026688;-74
2023/07/25 01:24:23;;;;;;;12.20;9.00;;;;;;;21.38;63.43;98939.64;78774;280;3027771;-74
2023/07/25 01:26:59;;;;;;;11.30;8.50;;;;;;;21.36;63.65;98941.73;78803;280;3029132;-74
2023/07/25 01:29:35;;;;;;;12.10;8.70;;;;;;;21.35;63.58;98935.70;78852;280;3028005;-72
2023/07/25 01:32:13;;;;;;;11.50;8.90;;;;;;;21.34;63.64;98935.96;78846;272;3028430;-74
2023/07/25 01:34:48;;;;;;;11.70;8.90;;;;;;;21.33;63.81;98940.52;78834;280;3027435;-74
2023/07/25 01:37:24;;;;;;;10.60;8.70;;;;;;;21.32;63.95;98947.55;79591;280;3011477;-73
2023/07/25 01:40:00;;;;;;;13.80;9.40;;;;;;;21.29;64.01;98953.18;78847;280;3027628;-74
2023/07/25 01:42:36;;;;;;;11.60;8.50;;;;;;;21.26;63.95;98949.06;79554;280;3011214;-74
2023/07/25 01:45:16;;;;;;;10.40;8.30;;;;;;;21.23;63.99;98950.42;78833;280;3027368;-74
2023/07/25 01:47:53;;;;;;;11.60;8.60;;;;;;;21.20;64.27;98943.33;78775;280;3027043;-73
2023/07/25 01:50:28;;;;;;;10.90;9.50;;;;;;;21.17;64.35;98939.00;78786;280;3028058;-74
2023/07/25 01:53:04;;;;;;;11.50;8.80;;;;;;;21.11;64.43;98938.17;78806;280;3027599;-73
2023/07/25 01:55:42;;;;;;;10.30;9.20;;;;;;;21.05;64.63;98938.48;79575;272;3011480;-72
2023/07/25 01:58:17;;;;;;;12.90;9.10;;;;;;;20.99;64.82;98931.88;78832;280;3027837;-72
2023/07/25 02:00:58;;;;;;;10.30;8.60;;;;;;;20.93;65.11;98929.77;78827;280;3026684;-72
2023/07/25 02:03:33;;;;;;;9.60;8.50;;;;;;;20.88;65.07;98931.56;78843;280;3027362;-73
2023/07/25 02:06:09;;;;;;;11.20;8.90;;;;;;;20.84;65.42;98937.09;79560;280;3011502;-73
2023/07/25 02:08:45;;;;;;;10.10;8.70;;;;;;;20.80;65.61;98936.11;78795;280;3028769;-74
2023/07/25 02:11:21;;;;;;;10.80;9.40;;;;;;;20.76;65.83;98934.54;79570;280;3011720;-71
2023/07/25 02:13:57;;;;;;;11.60;9.40;;;;;;;20.72;65.94;98941.21;79510;280;3013229;-73
2023/07/25 02:16:36;;;;;;;10.40;8.40;;;;;;;20.66;66.26;98937.00;79532;280;3011403;-74
2023/07/25 02:19:13;;;;;;;10.00;8.70;;;;;;;20.61;66.50;98939.27;78792;280;3027045;-72
2023/07/25 02:21:48;;;;;;;12.50;9.20;;;;;;;20.56;66.61;98935.38;78831;280;3027853;-74
2023/07/25 02:24:24;;;;;;;11.40;9.20;;;;;;;20.53;66.66;98936.39;79567;280;3011530;-74
2023/07/25 02:27:01;;;;;;;11.70;8.90;;;;;;;20.51;67.00;98932.02;79566;278;3011537;-74
2023/07/25 02:29:37;;;;;;;10.00;8.80;;;;;;;20.46;67.15;98929.30;79607;280;3013070;-75
2023/07/25 02:32:13;;;;;;;12.10;9.20;;;;;;;20.43;67.41;98934.06;78699;281;3027869;-74
2023/07/25 02:34:48;;;;;;;12.50;9.30;;;;;;;20.39;67.52;98932.29;78849;280;3027880;-72
2023/07/25 02:37:24;;;;;;;11.20;9.40;;;;;;;20.36;67.76;98924.48;78838;280;3027201;-72
2023/07/25 02:39:59;;;;;;;11.30;9.00;;;;;;;20.33;67.90;98918.39;78888;280;3027691;-73
2023/07/25 02:42:35;;;;;;;10.90;9.30;;;;;;;20.31;68.08;98922.64;78696;281;3028674;-73
2023/07/25 02:45:12;;;;;;;12.60;9.10;;;;;;;20.27;68.23;98920.35;78777;280;3027156;-74
2023/07/25 02:47:47;;;;;;;14.30;9.60;;;;;;;20.26;68.35;98922.77;78826;280;3026877;-74
2023/07/25 02:50:23;;;;;;;11.00;9.00;;;;;;;20.23;68.50;98924.71;79587;280;3013529;-73
2023/07/25 02:52:59;;;;;;;11.90;9.10;;;;;;;20.19;68.74;98924.80;78817;280;3027458;-73
2023/07/25 02:55:35;;;;;;;11.00;8.90;;;;;;;20.15;68.82;98925.91;78834;280;3026894;-74
2023/07/25 02:58:12;;;;;;;9.90;8.80;;;;;;;20.14;68.96;98932.86;78839;280;3027566;-74
2023/07/25 03:00:48;;;;;;;10.90;9.50;;;;;;;20.14;69.39;98929.05;78832;280;3027822;-74
2023/07/25 03:03:24;;;;;;;11.50;9.00;;;;;;;20.12;69.43;98935.93;78792;280;3027855;-72
2023/07/25 03:06:01;;;;;;;12.20;8.90;;;;;;;20.12;69.61;98937.73;78680;280;3027952;-74
2023/07/25 03:08:36;;;;;;;12.30;8.90;;;;;;;20.11;69.53;98942.59;78831;280;3028571;-74
2023/07/25 03:11:12;;;;;;;10.90;9.30;;;;;;;20.11;69.67;98942.17;78788;269;3026740;-75
2023/07/25 03:13:48;;;;;;;10.00;8.40;;;;;;;20.12;69.76;98943.90;78773;280;3027918;-74
2023/07/25 03:16:24;;;;;;;10.20;9.00;;;;;;;20.14;69.84;98947.27;79556;280;3011476;-73
2023/07/25 03:19:00;;;;;;;11.10;8.90;;;;;;;20.12;69.92;98949.18;79565;280;3011608;-73
2023/07/25 03:21:37;;;;;;;11.50;9.40;;;;;;;20.13;70.05;98949.31;79547;280;3011553;-74
2023/07/25 03:24:13;;;;;;;10.80;9.10;;;;;;;20.14;70.03;98949.89;79548;280;3011545;-73
2023/07/25 03:26:49;;;;;;;11.70;9.60;;;;;;;20.15;70.19;98951.00;79552;280;3011440;-73
2023/07/25 03:29:24;;;;;;;10.90;8.50;;;;;;;20.16;70.18;98950.91;78676;274;3027925;-73
2023/07/25 03:32:01;;;;;;;14.80;9.10;;;;;;;20.18;70.33;98949.15;79576;280;3012884;-74
2023/07/25 03:34:37;;;;;;;14.40;9.70;;;;;;;20.21;70.50;98953.40;78835;280;3027271;-74
2023/07/25 03:37:12;;;;;;;11.30;9.30;;;;;;;20.26;70.42;98954.34;78692;280;3028718;-74
2023/07/25 03:39:48;;;;;;;12.40;9.00;;;;;;;20.30;70.49;98953.58;79594;280;3011593;-74
2023/07/25 03:42:24;;;;;;;10.50;8.50;;;;;;;20.34;70.38;98949.98;79437;280;3011443;-74
2023/07/25 03:45:00;;;;;;;11.60;8.80;;;;;;;20.39;70.43;98951.30;79501;281;3012921;-73
2023/07/25 03:47:37;;;;;;;12.00;8.60;;;;;;;20.48;70.54;98953.55;79569;280;3011610;-74
2023/07/25 03:50:13;;;;;;;12.30;9.20;;;;;;;20.96;71.32;98950.41;78818;280;3028476;-74
2023/07/25 03:52:49;;;;;;;12.70;9.40;;;;;;;21.71;70.92;98958.09;78822;280;3028227;-73
2023/07/25 03:55:24;;;;;;;12.90;9.30;;;;;;;22.49;69.72;98959.96;78830;280;3027704;-73
2023/07/25 03:58:00;;;;;;;13.90;9.40;;;;;;;23.19;68.03;98964.64;79529;280;3011119;-73
2023/07/25 04:00:37;;;;;;;12.60;9.10;;;;;;;23.64;65.66;98965.23;79553;280;3013484;-75
2023/07/25 04:03:12;;;;;;;14.80;9.20;;;;;;;23.93;63.96;98970.57;78810;280;3028249;-75
2023/07/25 04:05:49;;;;;;;11.70;8.90;;;;;;;24.21;62.96;98966.58;79548;280;3013376;-74
2023/07/25 04:08:26;;;;;;;11.60;8.90;;;;;;;24.64;62.04;98970.96;78797;280;3027681;-74
2023/07/25 04:11:01;;;;;;;10.80;8.90;;;;;;;25.17;60.28;98979.05;78829;280;3027198;-73
2023/07/25 04:13:56;;;;;;;12.80;9.40;;;;;;;25.43;58.23;98971.04;78811;280;3028356;-73
2023/07/25 04:16:51;;;;;;;10.90;8.90;;;;;;;25.53;57.53;98965.42;78806;280;3028420;-73
2023/07/25 04:19:28;;;;;;;18.30;8.50;;;;;;;25.65;57.08;98965.88;79534;280;3011570;-73
2023/07/25 04:22:04;;;;;;;11.10;9.00;;;;;;;25.57;56.57;98964.27;79519;273;3011597;-74
2023/07/25 04:24:39;;;;;;;11.40;9.40;;;;;;;25.41;56.00;98974.91;78793;280;3027860;-73
2023/07/25 04:27:16;;;;;;;11.10;9.20;;;;;;;25.16;55.87;98980.27;79457;281;3013484;-74
2023/07/25 04:29:51;;;;;;;10.40;8.50;;;;;;;24.88;56.28;98983.85;78730;281;3027483;-73
2023/07/25 04:32:26;;;;;;;11.60;8.90;;;;;;;24.64;56.86;98987.58;78711;281;3028340;-74
2023/07/25 04:35:02;;;;;;;10.50;9.30;;;;;;;24.49;57.22;98989.52;79463;281;3011768;-73
2023/07/25 04:37:38;;;;;;;12.80;8.90;;;;;;;24.36;57.57;98990.00;79416;281;3011416;-73
2023/07/25 04:40:18;;;;;;;10.90;9.00;;;;;;;24.23;57.70;98988.95;79478;281;3013128;-73
2023/07/25 04:42:53;;;;;;;9.50;8.40;;;;;;;24.11;57.97;98992.15;78720;281;3026950;-74
2023/07/25 04:45:29;;;;;;;11.30;8.60;;;;;;;24.04;58.44;98990.66;79480;281;3011637;-73
2023/07/25 04:48:08;;;;;;;11.10;8.90;;;;;;;24.01;58.41;98994.09;79468;281;3013373;-73
2023/07/25 04:50:44;;;;;;;9.60;8.00;;;;;;;23.97;58.42;98994.19;78753;281;3027332;-72
2023/07/25 04:53:20;;;;;;;9.30;8.10;;;;;;;23.94;58.24;98998.48;78736;281;3027368;-72
2023/07/25 04:55:58;;;;;;;8.60;7.60;;;;;;;23.91;58.36;99004.35;78731;281;3027631;-71
2023/07/25 04:58:34;;;;;;;11.40;8.30;;;;;;;23.92;58.53;99007.55;78723;281;3027206;-72
2023/07/25 05:01:13;;;;;;;8.70;7.50;;;;;;;24.10;58.64;99003.18;78719;281;3027498;-71
2023/07/25 05:03:53;;;;;;;11.50;7.90;;;;;;;24.49;58.05;99000.80;78787;281;3027871;-73
2023/07/25 05:06:29;;;;;;;10.00;7.70;;;;;;;24.70;57.19;99009.11;78771;281;3027168;-71
2023/07/25 05:09:04;;;;;;;7.90;6.90;;;;;;;24.74;56.67;99008.88;78766;281;3027357;-72
2023/07/25 05:11:41;;;;;;;8.70;6.80;;;;;;;24.73;56.55;99007.39;79462;281;3011554;-74
2023/07/25 05:14:17;;;;;;;8.90;6.60;;;;;;;24.96;57.15;99012.77;78747;281;3027276;-75
2023/07/25 05:16:55;;;;;;;8.00;6.50;;;;;;;25.40;55.96;99015.58;78698;281;3027053;-71
2023/07/25 05:19:32;;;;;;;8.00;6.10;;;;;;;25.58;54.78;99018.92;77640;281;3027151;-74
2023/07/25 05:22:10;;;;;;;6.90;6.00;;;;;;;25.71;54.15;99015.54;78722;281;3027243;-73
2023/07/25 05:24:45;;;;;;;6.70;6.00;;;;;;;26.04;54.01;99018.44;78750;281;3027041;-73
2023/07/25 05:27:22;;;;;;;7.80;5.90;;;;;;;26.57;53.39;99021.63;79510;273;3011588;-73
2023/07/25 05:29:57;;;;;;;5.70;4.90;;;;;;;27.24;52.48;99025.05;78759;281;3026778;-73
2023/07/25 05:32:34;;;;;;;7.80;5.00;;;;;;;27.89;50.20;99028.69;79553;281;3011912;-72
2023/07/25 05:35:10;;;;;;;7.30;4.40;;;;;;;28.52;48.49;99027.05;78774;281;3027612;-72
2023/07/25 05:37:45;;;;;;;5.60;4.70;;;;;;;28.70;46.41;99017.61;78745;281;3028030;-72
2023/07/25 05:40:21;;;;;;;9.40;5.20;;;;;;;28.59;45.64;99018.52;79554;281;3011380;-72
2023/07/25 05:42:57;;;;;;;4.80;4.30;;;;;;;28.13;45.24;99021.03;78746;281;3028179;-72
2023/07/25 05:45:35;;;;;;;6.40;4.60;;;;;;;27.65;45.47;99023.11;78775;273;3027295;-72
2023/07/25 05:48:11;;;;;;;6.00;4.50;;;;;;;27.81;46.95;99024.66;79516;281;3013119;-72
2023/07/25 05:50:52;;;;;;;5.40;4.30;;;;;;;28.75;47.29;99018.99;78758;281;3028469;-72
2023/07/25 05:53:29;;;;;;;7.10;4.80;;;;;;;29.73;45.07;99021.19;78783;281;3028775;-73
2023/07/25 05:56:05;;;;;;;5.50;4.40;;;;;;;30.57;43.10;99025.23;78761;281;3027205;-72
2023/07/25 05:58:41;;;;;;;5.60;3.70;;;;;;;31.43;41.89;99031.74;78777;281;3027314;-73
2023/07/25 06:01:16;;;;;;;4.50;3.90;;;;;;;32.26;40.28;99030.92;78774;281;3028076;-73
2023/07/25 06:03:51;;;;;;;5.30;3.90;;;;;;;32.90;38.83;99028.67;78783;281;3027241;-74
2023/07/25 06:06:27;;;;;;;7.80;3.90;;;;;;;33.39;36.65;99027.23;78767;281;3026978;-72
2023/07/25 06:09:02;;;;;;;4.90;3.80;;;;;;;33.32;36.17;99025.13;78785;281;3026598;-73
2023/07/25 06:11:38;;;;;;;4.40;3.70;;;;;;;33.13;36.19;99027.63;78744;281;3028617;-73
2023/07/25 06:14:13;;;;;;;4.70;3.60;;;;;;;33.31;35.95;99028.14;78770;281;3029006;-73
2023/07/25 06:16:49;;;;;;;4.50;3.70;;;;;;;33.76;35.60;99028.20;79536;281;3011496;-73
2023/07/25 06:19:26;;;;;;;4.20;3.20;;;;;;;34.24;35.01;99028.85;79534;281;3011382;-73
2023/07/25 06:22:03;;;;;;;4.10;3.70;;;;;;;34.73;34.57;99018.44;78764;281;3026703;-73
2023/07/25 06:24:39;;;;;;;4.30;3.90;;;;;;;35.24;33.35;99019.66;78760;281;3028046;-73
2023/07/25 06:27:17;;;;;;;3.70;3.40;;;;;;;35.75;32.69;99025.83;78755;273;3027460;-74
2023/07/25 06:29:55;;;;;;;3.50;3.20;;;;;;;36.12;31.82;99021.98;78700;281;3026960;-74
2023/07/25 06:32:31;;;;;;;4.30;3.30;;;;;;;36.55;31.09;99022.60;78733;281;3027315;-74
2023/07/25 06:35:07;;;;;;;4.70;3.10;;;;;;;36.84;30.45;99026.19;78741;281;3026904;-74
2023/07/25 06:37:43;;;;;;;4.10;3.70;;;;;;;37.10;30.02;99023.70;78732;281;3026937;-74
2023/07/25 06:40:18;;;;;;;3.30;2.90;;;;;;;37.40;29.74;99019.95;78736;273;3028460;-74
2023/07/25 06:42:55;;;;;;;6.00;3.40;;;;;;;37.59;29.00;99027.50;79475;281;3013196;-74
2023/07/25 06:45:30;;;;;;;3.20;2.80;;;;;;;37.72;28.65;99021.80;78764;269;3027720;-74
2023/07/25 06:48:07;;;;;;;3.40;2.30;;;;;;;37.93;28.27;99021.30;78744;281;3026906;-74
2023/07/25 06:50:43;;;;;;;3.60;2.10;;;;;;;37.96;27.29;99033.03;78769;281;3026623;-74
2023/07/25 06:53:19;;;;;;;3.00;2.50;;;;;;;37.96;27.22;99034.41;78755;281;3027647;-74
2023/07/25 06:55:54;;;;;;;2.60;2.40;;;;;;;38.11;26.88;99029.08;78779;281;3027748;-74
2023/07/25 06:58:32;;;;;;;2.00;1.90;;;;;;;38.18;26.39;99026.63;78674;281;3028569;-75
2023/07/25 07:01:07;;;;;;;2.40;2.20;;;;;;;38.09;26.12;99024.76;78744;269;3027181;-75
2023/07/25 07:03:43;;;;;;;2.00;1.80;;;;;;;38.19;26.20;99027.11;78763;281;3028038;-75
2023/07/25 07:06:19;;;;;;;2.90;1.90;;;;;;;38.34;26.34;99042.14;78699;281;3027025;-75
2023/07/25 07:08:55;;;;;;;2.30;2.00;;;;;;;38.36;25.81;99051.30;79357;281;3011597;-75
2023/07/25 07:11:30;;;;;;;2.30;1.90;;;;;;;38.47;26.15;99053.99;78721;281;3027376;-75
2023/07/25 07:14:06;;;;;;;3.00;2.20;;;;;;;38.58;25.75;99053.89;78690;274;3027374;-75
2023/07/25 07:16:42;;;;;;;2.60;2.00;;;;;;;38.54;25.58;99050.98;79509;281;3011518;-75
2023/07/25 07:19:18;;;;;;;2.30;1.80;;;;;;;38.61;25.55;99051.09;79535;281;3012675;-75
2023/07/25 07:21:55;;;;;;;2.20;2.00;;;;;;;38.85;26.02;99051.77;78785;281;3027921;-75
2023/07/25 07:24:31;;;;;;;1.80;1.70;;;;;;;39.06;25.04;99050.30;78787;281;3027716;-76
2023/07/25 07:27:08;;;;;;;2.30;1.70;;;;;;;39.02;25.28;99050.09;78856;280;3026816;-75
2023/07/25 07:29:43;;;;;;;4.20;1.80;;;;;;;39.09;24.98;99053.36;78830;280;3027126;-76
2023/07/25 07:32:20;;;;;;;2.10;1.70;;;;;;;39.27;24.79;99061.49;79468;281;3011454;-74
2023/07/25 07:34:56;;;;;;;3.30;1.80;;;;;;;39.47;24.91;99062.08;78821;280;3027984;-76
2023/07/25 07:37:34;;;;;;;2.40;1.70;;;;;;;39.59;24.37;99063.64;78840;280;3026667;-76
2023/07/25 07:40:13;;;;;;;1.90;1.80;;;;;;;39.54;24.51;99069.94;78791;280;3027773;-75
2023/07/25 07:42:48;;;;;;;3.30;1.70;;;;;;;39.73;24.33;99073.11;78722;281;3027582;-75
2023/07/25 07:45:25;;;;;;;2.80;1.80;;;;;;;39.83;24.18;99065.45;78850;280;3028694;-75
2023/07/25 07:48:00;;;;;;;1.70;1.50;;;;;;;39.91;24.20;99066.45;78779;280;3027381;-75
2023/07/25 07:50:36;;;;;;;1.50;1.40;;;;;;;39.95;24.05;99069.49;78818;280;3027658;-75
2023/07/25 07:53:18;;;;;;;2.20;1.80;;;;;;;40.14;24.10;99070.11;78812;272;3026965;-76
2023/07/25 07:56:05;;;;;;;1.70;1.50;;;;;;;40.25;23.63;99068.52;78852;280;3027287;-77
2023/07/25 07:59:01;;;;;;;2.20;1.40;;;;;;;40.41;23.64;99062.36;78836;280;3028322;-76
2023/07/25 08:01:37;;;;;;;3.00;1.70;;;;;;;40.52;23.22;99067.22;78721;280;3027001;-76
2023/07/25 08:04:13;;;;;;;1.50;1.30;;;;;;;40.51;23.28;99068.27;78827;280;3028552;-75
2023/07/25 08:06:48;;;;;;;1.70;1.50;;;;;;;40.49;22.86;99079.09;78835;280;3027884;-75
2023/07/25 08:09:24;;;;;;;1.40;1.30;;;;;;;40.61;22.86;99081.31;79561;280;3011427;-75
2023/07/25 08:12:03;;;;;;;2.30;1.40;;;;;;;40.68;22.55;99070.06;79555;280;3013348;-75
2023/07/25 08:14:38;;;;;;;1.70;1.50;;;;;;;40.52;22.52;99065.47;78801;280;3028588;-75
2023/07/25 08:17:14;;;;;;;5.40;2.70;;;;;;;40.59;22.35;99062.09;78820;280;3029747;-76
2023/07/25 08:19:49;;;;;;;4.10;3.30;;;;;;;40.63;22.21;99067.05;78835;280;3028072;-74
2023/07/25 08:22:26;;;;;;;1.60;1.50;;;;;;;40.73;21.75;99076.06;79595;280;3013055;-74
2023/07/25 08:25:01;;;;;;;1.30;1.20;;;;;;;40.70;21.73;99085.63;78817;272;3027758;-75
2023/07/25 08:27:36;;;;;;;1.40;1.30;;;;;;;40.84;21.74;99086.87;78825;280;3027884;-75
2023/07/25 08:30:14;;;;;;;1.60;1.40;;;;;;;40.88;21.30;99083.61;78841;280;3028469;-75
2023/07/25 08:32:50;;;;;;;1.80;1.40;;;;;;;40.51;21.64;99086.20;78695;282;3026702;-75
2023/07/25 08:35:25;;;;;;;1.70;1.60;;;;;;;40.54;21.85;99090.85;78855;280;3026946;-74
2023/07/25 08:38:01;;;;;;;2.00;1.70;;;;;;;40.81;21.62;99082.73;79600;280;3011535;-75
2023/07/25 08:40:37;;;;;;;2.10;1.40;;;;;;;40.93;21.80;99077.63;79566;280;3011485;-75
2023/07/25 08:43:14;;;;;;;1.70;1.60;;;;;;;40.99;21.39;99070.84;79536;272;3011491;-75
2023/07/25 08:45:50;;;;;;;1.60;1.50;;;;;;;40.75;21.33;99071.70;79571;280;3011530;-75
2023/07/25 08:48:34;;;;;;;3.00;1.50;;;;;;;40.44;21.74;99068.33;78820;280;3026969;-75
2023/07/25 08:51:18;;;;;;;2.30;1.60;;;;;;;40.55;21.95;99055.98;78817;280;3027929;-74
2023/07/25 08:54:03;;;;;;;1.40;1.30;;;;;;;40.04;21.66;99046.26;78880;280;3028006;-75
2023/07/25 08:56:43;;;;;;;1.40;1.30;;;;;;;39.39;22.31;99044.42;78840;280;3028522;-75
2023/07/25 08:59:19;;;;;;;1.50;1.40;;;;;;;39.01;22.72;99046.09;78880;280;3028677;-75
2023/07/25 09:01:54;;;;;;;1.60;1.50;;;;;;;38.52;23.86;99056.63;78871;280;3026837;-75
2023/07/25 09:04:37;;;;;;;2.60;1.50;;;;;;;38.70;24.18;99054.71;78737;274;3028993;-75
2023/07/25 09:07:14;;;;;;;1.50;1.40;;;;;;;39.06;23.89;99051.23;78851;280;3027510;-75
2023/07/25 09:09:49;;;;;;;1.40;1.30;;;;;;;39.37;23.43;99052.98;78842;280;3027361;-75
2023/07/25 09:12:25;;;;;;;2.30;1.70;;;;;;;39.38;22.87;99051.06;78839;272;3028089;-75
2023/07/25 09:15:00;;;;;;;1.30;1.20;;;;;;;38.80;22.74;99062.73;78747;282;3027022;-75
2023/07/25 09:17:37;;;;;;;1.40;1.20;;;;;;;38.11;23.37;99072.99;79572;280;3011701;-74
2023/07/25 09:20:14;;;;;;;1.60;1.40;;;;;;;37.27;23.83;99084.13;78860;329;3027348;-73
2023/07/25 09:22:51;;;;;;;1.60;1.50;;;;;;;36.87;24.64;99091.64;78852;280;3027478;-73
2023/07/25 09:25:27;;;;;;;1.40;1.20;;;;;;;36.50;25.30;99100.05;78904;268;3027628;-73
2023/07/25 09:28:03;;;;;;;2.10;1.40;;;;;;;36.06;25.55;99106.28;78865;280;3027657;-74
2023/07/25 09:30:49;;;;;;;1.80;1.10;;;;;;;35.50;26.03;99107.25;78861;276;3028196;-73
2023/07/25 09:33:30;;;;;;;1.40;1.30;;;;;;;35.24;26.70;99105.71;78862;280;3026904;-72
2023/07/25 09:36:06;;;;;;;1.60;1.50;;;;;;;35.25;27.59;99102.14;78822;280;3028675;-73
2023/07/25 09:38:45;;;;;;;1.80;1.40;;;;;;;35.35;27.69;99100.81;78859;280;3028448;-73
2023/07/25 09:41:21;;;;;;;1.50;1.30;;;;;;;35.25;27.50;99096.05;78823;280;3026728;-73
2023/07/25 09:44:00;;;;;;;1.40;1.30;;;;;;;35.01;27.56;99089.16;78843;280;3027385;-74
2023/07/25 09:46:36;;;;;;;3.90;1.70;;;;;;;34.75;27.69;99095.20;78834;280;3027522;-74
2023/07/25 09:49:19;;;;;;;2.20;1.40;;;;;;;34.18;27.58;99098.52;78832;280;3027259;-74
2023/07/25 09:52:04;;;;;;;1.50;1.40;;;;;;;33.48;28.36;99094.40;78719;281;3027358;-72
2023/07/25 09:54:39;;;;;;;1.50;1.30;;;;;;;33.05;29.26;99097.77;78674;280;3027015;-73
2023/07/25 09:57:15;;;;;;;1.70;1.10;;;;;;;32.95;30.17;99084.14;78834;280;3028684;-73
2023/07/25 09:59:55;;;;;;;2.50;1.50;;;;;;;32.80;29.88;99078.77;78827;280;3028145;-73
2023/07/25 10:02:32;;;;;;;1.40;1.30;;;;;;;32.85;29.75;99081.44;78725;280;3026693;-73
2023/07/25 10:05:08;;;;;;;1.40;1.30;;;;;;;32.97;30.23;99078.77;78744;269;3028170;-72
2023/07/25 10:07:44;;;;;;;1.50;1.40;;;;;;;33.04;29.85;99084.73;78833;269;3027412;-73
2023/07/25 10:10:20;;;;;;;1.80;1.30;;;;;;;33.11;29.58;99087.78;78823;280;3027576;-74
2023/07/25 10:12:58;;;;;;;1.60;1.20;;;;;;;33.17;29.49;99085.57;78848;280;3027300;-74
2023/07/25 10:15:35;;;;;;;1.40;1.10;;;;;;;33.29;29.20;99080.19;78863;280;3027337;-73
2023/07/25 10:18:23;;;;;;;2.30;1.60;;;;;;;33.26;28.51;99075.19;78873;280;3030328;-73
2023/07/25 10:21:00;;;;;;;1.80;1.20;;;;;;;33.22;28.73;99083.35;78725;280;3027462;-73
2023/07/25 10:23:36;;;;;;;2.70;1.40;;;;;;;33.19;28.32;99072.16;78847;272;3028161;-73
2023/07/25 10:26:16;;;;;;;3.00;1.60;;;;;;;33.26;28.63;99063.98;78846;280;3027000;-73
2023/07/25 10:28:53;;;;;;;2.20;1.20;;;;;;;33.31;28.71;99071.52;78915;280;3026935;-72
2023/07/25 10:31:35;;;;;;;2.60;1.40;;;;;;;33.30;28.61;99069.98;78822;280;3027411;-70
2023/07/25 10:34:13;;;;;;;2.20;1.40;;;;;;;33.11;27.77;99075.95;78821;280;3027459;-71
2023/07/25 10:36:49;;;;;;;3.10;1.30;;;;;;;32.78;27.99;99083.55;78859;280;3028280;-70
2023/07/25 10:39:41;;;;;;;2.20;1.30;;;;;;;32.75;28.71;99081.19;79604;280;3011519;-71
2023/07/25 10:42:20;;;;;;;1.80;1.30;;;;;;;32.75;28.21;99084.00;78839;280;3026725;-71
2023/07/25 10:44:58;;;;;;;3.30;1.30;;;;;;;32.74;28.41;99080.52;78817;280;3027013;-69
2023/07/25 10:47:48;;;;;;;1.40;1.20;;;;;;;32.77;28.12;99087.38;78837;280;3028006;-70
2023/07/25 10:50:53;;;;;;;1.90;1.40;;;;;;;32.82;28.22;99080.11;78849;280;3028812;-70
2023/07/25 10:53:35;;;;;;;1.60;1.00;;;;;;;32.77;27.88;99079.13;78768;281;3026918;-71
2023/07/25 10:56:20;;;;;;;1.70;1.30;;;;;;;32.72;28.29;99079.92;78861;280;3027007;-71
2023/07/25 10:59:18;;;;;;;1.40;1.30;;;;;;;32.77;28.17;99084.28;78897;280;3026733;-71
2023/07/25 11:01:59;;;;;;;2.70;1.30;;;;;;;32.83;28.23;99086.05;78706;280;3027971;-70
2023/07/25 11:04:42;;;;;;;2.50;1.50;;;;;;;32.71;28.06;99086.95;78846;280;3027313;-71
2023/07/25 11:07:23;;;;;;;2.10;1.30;;;;;;;32.41;28.11;99084.44;78826;280;3026888;-71
2023/07/25 11:10:02;;;;;;;1.40;1.30;;;;;;;32.04;28.49;99085.44;78854;269;3028029;-71
2023/07/25 11:12:42;;;;;;;1.30;1.20;;;;;;;31.98;28.85;99076.02;78846;280;3027890;-69
2023/07/25 11:15:19;;;;;;;3.20;1.30;;;;;;;32.05;28.84;99080.92;78909;280;3027362;-71
2023/07/25 11:17:55;;;;;;;1.40;1.30;;;;;;;32.09;28.24;99079.95;78878;280;3026724;-72
2023/07/25 11:20:37;;;;;;;1.30;1.20;;;;;;;32.02;28.53;99084.09;78841;280;3027819;-71
2023/07/25 11:23:21;;;;;;;1.40;1.30;;;;;;;31.89;28.79;99082.91;78814;280;3027800;-72
2023/07/25 11:26:03;;;;;;;2.50;1.60;;;;;;;31.80;29.35;99088.34;78867;280;3027973;-70
2023/07/25 11:28:41;;;;;;;3.20;2.20;;;;;;;31.78;29.48;99093.95;78861;279;3028287;-71
2023/07/25 11:31:25;;;;;;;1.70;1.30;;;;;;;31.64;29.29;99095.15;78845;272;3028062;-71
2023/07/25 11:34:12;;;;;;;2.90;1.80;;;;;;;31.35;29.20;99098.74;78818;280;3026881;-71
2023/07/25 11:36:50;;;;;;;3.20;1.80;;;;;;;30.93;29.55;99090.96;78841;280;3026956;-71
2023/07/25 11:39:28;;;;;;;2.50;1.60;;;;;;;30.70;30.46;99093.30;78836;280;3027295;-71
2023/07/25 11:42:06;;;;;;;2.70;1.80;;;;;;;30.75;30.60;99094.83;78749;281;3027563;-71
2023/07/25 11:44:44;;;;;;;2.80;2.10;;;;;;;30.75;30.34;99090.42;78846;279;3027426;-72
2023/07/25 11:47:21;;;;;;;1.60;1.50;;;;;;;30.79;30.76;99085.94;78859;280;3027373;-72
2023/07/25 11:49:58;;;;;;;3.00;1.80;;;;;;;30.80;30.74;99077.31;78875;280;3027953;-71
2023/07/25 11:52:39;;;;;;;2.40;1.60;;;;;;;30.74;30.81;99068.41;78845;280;3028212;-71
2023/07/25 11:55:13;;;;;;;;;;;;;;;30.75;30.90;99070.98;78756;280;3027088;-69
2023/07/25 11:57:48;;;;;;;2.70;1.50;;;;;;;30.79;31.10;99066.37;80093;280;3011565;-70
2023/07/25 12:00:27;;;;;;;2.40;1.50;;;;;;;30.92;31.15;99066.67;78838;280;3027568;-68
2023/07/25 12:03:04;;;;;;;2.30;1.30;;;;;;;30.95;30.83;99067.67;78694;280;3027427;-70
2023/07/25 12:05:46;;;;;;;1.50;1.40;;;;;;;30.83;30.36;99069.45;78886;280;3026994;-71
2023/07/25 12:08:37;;;;;;;1.60;1.30;;;;;;;30.71;30.97;99074.06;78851;280;3027444;-72